Elizabeth, Minnesota
Current Conditions -  °F | °C
As of 5:14 PM on Saturday 25 Oct 2014 (Local Time) from KFFM Reporting Station
Clear Clear  
Wind Chill: 57°   Ceiling: Unl
Heat Index: 57°   Visibility: 10mi
Dew Point: 19°   Wind: 9mph
Humidity: 23%   Direction: 330°NNW
Pressure: 30.09"   Gusts: NA
Location:  46.38°N, 96.13°W
Report Text: KFFM 252214Z AUTO 33008KT 10SM CLR 14/M07 A3009 RMK AO2
Loading
Personal Weather Stations






























Interactive Weather Map
Tropical Storm Tracking
New forecast layout! Learn more

10-Day Weather Forecast

Advertisements
Track Severe Weather on mobile